sensor_id;sensor_type;location;lat;lon;timestamp;pressure;altitude;pressure_sealevel;temperature;humidity
21988;BME280;11158;53.404;-1.510;2023-08-20T00:01:14;100649.25;;;21.22;49.89
21988;BME280;11158;53.404;-1.510;2023-08-20T00:04:00;100646.22;;;21.36;49.81
21988;BME280;11158;53.404;-1.510;2023-08-20T00:06:44;100663.69;;;21.23;50.11
21988;BME280;11158;53.404;-1.510;2023-08-20T00:09:30;100658.34;;;21.11;50.40
21988;BME280;11158;53.404;-1.510;2023-08-20T00:12:14;100661.88;;;20.95;50.87
21988;BME280;11158;53.404;-1.510;2023-08-20T00:15:01;100658.09;;;20.96;50.98
21988;BME280;11158;53.404;-1.510;2023-08-20T00:17:49;100653.38;;;21.25;49.94
21988;BME280;11158;53.404;-1.510;2023-08-20T00:20:33;100659.91;;;20.44;52.22
21988;BME280;11158;53.404;-1.510;2023-08-20T00:23:18;100658.59;;;20.92;51.00
21988;BME280;11158;53.404;-1.510;2023-08-20T00:26:02;100659.59;;;21.03;50.62
21988;BME280;11158;53.404;-1.510;2023-08-20T00:28:46;100658.25;;;21.23;50.13
21988;BME280;11158;53.404;-1.510;2023-08-20T00:31:30;100651.72;;;19.87;54.04
21988;BME280;11158;53.404;-1.510;2023-08-20T00:34:14;100667.22;;;20.44;52.63
21988;BME280;11158;53.404;-1.510;2023-08-20T00:36:59;100674.22;;;20.85;51.14
21988;BME280;11158;53.404;-1.510;2023-08-20T00:39:43;100676.00;;;20.80;51.51
21988;BME280;11158;53.404;-1.510;2023-08-20T00:42:27;100672.56;;;20.67;51.48
21988;BME280;11158;53.404;-1.510;2023-08-20T00:45:11;100667.97;;;20.85;51.57
21988;BME280;11158;53.404;-1.510;2023-08-20T00:47:56;100671.25;;;21.04;50.83
21988;BME280;11158;53.404;-1.510;2023-08-20T00:50:41;100665.56;;;20.88;51.27
21988;BME280;11158;53.404;-1.510;2023-08-20T00:53:25;100675.97;;;20.91;51.03
21988;BME280;11158;53.404;-1.510;2023-08-20T00:56:10;100681.03;;;20.42;52.38
21988;BME280;11158;53.404;-1.510;2023-08-20T00:58:54;100678.81;;;20.68;52.09
21988;BME280;11158;53.404;-1.510;2023-08-20T01:01:38;100679.47;;;19.77;54.55
21988;BME280;11158;53.404;-1.510;2023-08-20T01:04:23;100675.75;;;20.07;53.61
21988;BME280;11158;53.404;-1.510;2023-08-20T01:08:00;100685.19;;;18.98;56.82
21988;BME280;11158;53.404;-1.510;2023-08-20T01:11:08;100696.56;;;18.77;57.83
21988;BME280;11158;53.404;-1.510;2023-08-20T01:13:55;100681.94;;;19.32;56.05
21988;BME280;11158;53.404;-1.510;2023-08-20T01:16:39;100678.63;;;19.06;56.89
21988;BME280;11158;53.404;-1.510;2023-08-20T01:19:23;100666.16;;;20.16;53.75
21988;BME280;11158;53.404;-1.510;2023-08-20T01:31:29;100677.00;;;20.74;51.32
21988;BME280;11158;53.404;-1.510;2023-08-20T01:34:14;100675.19;;;20.62;51.82
21988;BME280;11158;53.404;-1.510;2023-08-20T01:36:58;100683.59;;;20.20;53.33
21988;BME280;11158;53.404;-1.510;2023-08-20T01:39:42;100675.34;;;20.73;52.27
21988;BME280;11158;53.404;-1.510;2023-08-20T01:42:26;100680.38;;;20.52;52.80
21988;BME280;11158;53.404;-1.510;2023-08-20T01:45:11;100680.75;;;20.56;52.49
21988;BME280;11158;53.404;-1.510;2023-08-20T01:47:55;100688.94;;;20.44;52.68
21988;BME280;11158;53.404;-1.510;2023-08-20T01:50:39;100675.53;;;21.00;50.92
21988;BME280;11158;53.404;-1.510;2023-08-20T01:53:24;100676.09;;;20.39;52.51
21988;BME280;11158;53.404;-1.510;2023-08-20T01:56:12;100667.72;;;20.00;53.58
21988;BME280;11158;53.404;-1.510;2023-08-20T01:58:56;100677.59;;;19.42;55.50
21988;BME280;11158;53.404;-1.510;2023-08-20T02:01:40;100689.34;;;19.36;56.16
21988;BME280;11158;53.404;-1.510;2023-08-20T02:04:24;100683.91;;;19.83;54.69
21988;BME280;11158;53.404;-1.510;2023-08-20T02:07:09;100671.72;;;20.09;53.91
21988;BME280;11158;53.404;-1.510;2023-08-20T02:09:52;100676.69;;;20.41;52.91
21988;BME280;11158;53.404;-1.510;2023-08-20T02:12:36;100683.66;;;20.66;51.99
21988;BME280;11158;53.404;-1.510;2023-08-20T02:15:20;100695.19;;;20.44;52.74
21988;BME280;11158;53.404;-1.510;2023-08-20T02:18:05;100699.13;;;20.65;52.34
21988;BME280;11158;53.404;-1.510;2023-08-20T02:20:48;100703.88;;;20.29;52.97
21988;BME280;11158;53.404;-1.510;2023-08-20T02:23:33;100716.72;;;20.34;53.18
21988;BME280;11158;53.404;-1.510;2023-08-20T02:26:17;100711.69;;;20.14;53.92
21988;BME280;11158;53.404;-1.510;2023-08-20T02:29:01;100715.59;;;20.47;52.73
21988;BME280;11158;53.404;-1.510;2023-08-20T02:31:46;100697.72;;;20.63;52.30
21988;BME280;11158;53.404;-1.510;2023-08-20T02:34:30;100702.00;;;20.59;52.28
21988;BME280;11158;53.404;-1.510;2023-08-20T02:37:14;100708.81;;;20.33;52.84
21988;BME280;11158;53.404;-1.510;2023-08-20T02:39:59;100710.38;;;20.17;53.85
21988;BME280;11158;53.404;-1.510;2023-08-20T02:42:42;100716.59;;;19.77;54.63
21988;BME280;11158;53.404;-1.510;2023-08-20T02:45:26;100719.94;;;20.19;53.46
21988;BME280;11158;53.404;-1.510;2023-08-20T02:48:11;100724.56;;;20.59;52.23
21988;BME280;11158;53.404;-1.510;2023-08-20T02:50:55;100723.97;;;20.45;52.23
21988;BME280;11158;53.404;-1.510;2023-08-20T02:53:39;100719.03;;;20.02;53.67
21988;BME280;11158;53.404;-1.510;2023-08-20T02:56:23;100719.63;;;20.04;53.79
21988;BME280;11158;53.404;-1.510;2023-08-20T02:59:07;100722.91;;;20.06;53.64
21988;BME280;11158;53.404;-1.510;2023-08-20T03:01:51;100730.94;;;19.30;56.15
21988;BME280;11158;53.404;-1.510;2023-08-20T03:04:35;100727.09;;;19.85;54.74
21988;BME280;11158;53.404;-1.510;2023-08-20T03:07:19;100722.34;;;19.92;54.01
21988;BME280;11158;53.404;-1.510;2023-08-20T03:10:04;100734.59;;;19.95;54.08
21988;BME280;11158;53.404;-1.510;2023-08-20T03:12:48;100720.75;;;20.20;53.07
21988;BME280;11158;53.404;-1.510;2023-08-20T03:15:32;100729.16;;;20.18;53.08
21988;BME280;11158;53.404;-1.510;2023-08-20T03:18:16;100743.47;;;19.43;55.66
21988;BME280;11158;53.404;-1.510;2023-08-20T03:21:00;100737.09;;;19.61;54.90
21988;BME280;11158;53.404;-1.510;2023-08-20T03:23:44;100748.06;;;19.90;54.28
21988;BME280;11158;53.404;-1.510;2023-08-20T03:26:28;100748.06;;;19.90;54.27
21988;BME280;11158;53.404;-1.510;2023-08-20T03:29:12;100746.88;;;19.97;54.05
21988;BME280;11158;53.404;-1.510;2023-08-20T03:31:56;100747.75;;;19.86;54.26
21988;BME280;11158;53.404;-1.510;2023-08-20T03:34:40;100743.47;;;19.55;55.09
21988;BME280;11158;53.404;-1.510;2023-08-20T03:37:25;100744.25;;;19.08;57.14
21988;BME280;11158;53.404;-1.510;2023-08-20T03:40:10;100753.72;;;18.69;58.22
21988;BME280;11158;53.404;-1.510;2023-08-20T03:42:54;100758.19;;;19.47;55.95
21988;BME280;11158;53.404;-1.510;2023-08-20T03:45:38;100743.84;;;19.70;55.00
21988;BME280;11158;53.404;-1.510;2023-08-20T03:48:22;100751.84;;;19.77;54.60
21988;BME280;11158;53.404;-1.510;2023-08-20T03:51:07;100748.69;;;18.72;58.17
21988;BME280;11158;53.404;-1.510;2023-08-20T03:53:52;100748.25;;;19.17;56.89
21988;BME280;11158;53.404;-1.510;2023-08-20T03:56:36;100753.03;;;19.69;55.17
21988;BME280;11158;53.404;-1.510;2023-08-20T03:59:21;100758.91;;;19.00;57.13
21988;BME280;11158;53.404;-1.510;2023-08-20T04:02:05;100756.72;;;19.21;56.95
21988;BME280;11158;53.404;-1.510;2023-08-20T04:04:49;100758.97;;;19.24;56.77
21988;BME280;11158;53.404;-1.510;2023-08-20T04:07:33;100760.81;;;19.00;57.77
21988;BME280;11158;53.404;-1.510;2023-08-20T04:10:17;100762.09;;;18.97;57.54
21988;BME280;11158;53.404;-1.510;2023-08-20T04:13:01;100772.25;;;18.53;59.44
21988;BME280;11158;53.404;-1.510;2023-08-20T04:15:45;100767.06;;;19.12;57.66
21988;BME280;11158;53.404;-1.510;2023-08-20T04:18:29;100768.56;;;19.62;55.74
21988;BME280;11158;53.404;-1.510;2023-08-20T04:21:13;100765.41;;;19.88;54.76
21988;BME280;11158;53.404;-1.510;2023-08-20T04:23:57;100766.09;;;20.07;54.32
21988;BME280;11158;53.404;-1.510;2023-08-20T04:26:41;100759.25;;;20.17;53.73
21988;BME280;11158;53.404;-1.510;2023-08-20T04:29:26;100765.28;;;20.07;53.98
21988;BME280;11158;53.404;-1.510;2023-08-20T04:32:11;100757.00;;;20.02;53.89
21988;BME280;11158;53.404;-1.510;2023-08-20T04:34:55;100755.16;;;19.91;54.01
21988;BME280;11158;53.404;-1.510;2023-08-20T04:37:39;100771.78;;;19.71;54.47
21988;BME280;11158;53.404;-1.510;2023-08-20T04:40:23;100774.50;;;19.82;54.23
21988;BME280;11158;53.404;-1.510;2023-08-20T04:43:08;100768.84;;;19.84;54.12
21988;BME280;11158;53.404;-1.510;2023-08-20T04:45:52;100770.50;;;19.73;54.40
21988;BME280;11158;53.404;-1.510;2023-08-20T04:48:36;100769.78;;;19.78;54.32
21988;BME280;11158;53.404;-1.510;2023-08-20T04:51:20;100766.94;;;19.84;54.41
21988;BME280;11158;53.404;-1.510;2023-08-20T04:54:04;100770.00;;;19.76;54.31
21988;BME280;11158;53.404;-1.510;2023-08-20T04:56:48;100764.25;;;19.73;54.50
21988;BME280;11158;53.404;-1.510;2023-08-20T04:59:32;100764.44;;;19.36;55.41
21988;BME280;11158;53.404;-1.510;2023-08-20T05:02:16;100767.50;;;19.63;55.09
21988;BME280;11158;53.404;-1.510;2023-08-20T05:05:00;100768.78;;;19.60;55.30
21988;BME280;11158;53.404;-1.510;2023-08-20T05:07:44;100769.19;;;19.87;54.48
21988;BME280;11158;53.404;-1.510;2023-08-20T05:10:28;100761.72;;;20.18;53.35
21988;BME280;11158;53.404;-1.510;2023-08-20T05:13:12;100765.59;;;19.40;56.13
21988;BME280;11158;53.404;-1.510;2023-08-20T05:15:56;100774.56;;;18.98;57.66
21988;BME280;11158;53.404;-1.510;2023-08-20T05:18:41;100782.28;;;19.13;57.65
21988;BME280;11158;53.404;-1.510;2023-08-20T05:21:26;100779.84;;;19.35;56.80
21988;BME280;11158;53.404;-1.510;2023-08-20T05:24:09;100777.44;;;20.04;54.64
21988;BME280;11158;53.404;-1.510;2023-08-20T05:27:12;100788.97;;;20.23;54.09
21988;BME280;11158;53.404;-1.510;2023-08-20T05:29:58;100784.31;;;20.59;52.95
21988;BME280;11158;53.404;-1.510;2023-08-20T05:32:42;100788.63;;;21.01;52.14
21988;BME280;11158;53.404;-1.510;2023-08-20T05:35:26;100782.44;;;21.05;52.39
21988;BME280;11158;53.404;-1.510;2023-08-20T05:38:10;100782.84;;;21.99;50.27
21988;BME280;11158;53.404;-1.510;2023-08-20T05:40:54;100782.09;;;23.83;46.50
21988;BME280;11158;53.404;-1.510;2023-08-20T05:43:38;100771.59;;;24.96;43.88
21988;BME280;11158;53.404;-1.510;2023-08-20T05:46:22;100772.69;;;25.92;40.79
21988;BME280;11158;53.404;-1.510;2023-08-20T05:49:06;100785.16;;;26.34;40.19
21988;BME280;11158;53.404;-1.510;2023-08-20T05:51:51;100776.09;;;26.93;38.28
21988;BME280;11158;53.404;-1.510;2023-08-20T05:54:34;100775.94;;;27.14;38.15
21988;BME280;11158;53.404;-1.510;2023-08-20T05:57:19;100784.75;;;26.71;38.67
21988;BME280;11158;53.404;-1.510;2023-08-20T06:00:04;100793.53;;;26.63;38.01
21988;BME280;11158;53.404;-1.510;2023-08-20T06:02:48;100784.94;;;26.20;38.85
21988;BME280;11158;53.404;-1.510;2023-08-20T06:05:36;100796.91;;;26.45;39.52
21988;BME280;11158;53.404;-1.510;2023-08-20T06:08:20;100785.38;;;28.44;35.64
21988;BME280;11158;53.404;-1.510;2023-08-20T06:11:04;100776.13;;;28.58;35.06
21988;BME280;11158;53.404;-1.510;2023-08-20T06:13:48;100781.06;;;29.65;33.59
21988;BME280;11158;53.404;-1.510;2023-08-20T06:16:32;100773.50;;;30.45;31.68
21988;BME280;11158;53.404;-1.510;2023-08-20T06:19:16;100783.09;;;30.06;32.36
21988;BME280;11158;53.404;-1.510;2023-08-20T06:22:00;100788.66;;;29.73;32.78
21988;BME280;11158;53.404;-1.510;2023-08-20T06:24:46;100798.97;;;28.59;34.52
21988;BME280;11158;53.404;-1.510;2023-08-20T06:27:30;100799.72;;;27.63;36.50
21988;BME280;11158;53.404;-1.510;2023-08-20T06:30:15;100795.78;;;29.09;34.15
21988;BME280;11158;53.404;-1.510;2023-08-20T06:32:59;100789.72;;;30.46;31.52
21988;BME280;11158;53.404;-1.510;2023-08-20T06:35:43;100784.94;;;29.64;33.53
21988;BME280;11158;53.404;-1.510;2023-08-20T06:38:27;100793.16;;;29.69;33.47
21988;BME280;11158;53.404;-1.510;2023-08-20T06:41:11;100804.22;;;30.38;31.63
21988;BME280;11158;53.404;-1.510;2023-08-20T06:43:55;100797.47;;;30.95;30.98
21988;BME280;11158;53.404;-1.510;2023-08-20T06:46:40;100802.25;;;32.02;29.15
21988;BME280;11158;53.404;-1.510;2023-08-20T06:49:24;100811.91;;;29.15;33.64
21988;BME280;11158;53.404;-1.510;2023-08-20T06:52:08;100807.56;;;30.07;32.83
21988;BME280;11158;53.404;-1.510;2023-08-20T06:54:52;100803.72;;;31.00;30.61
21988;BME280;11158;53.404;-1.510;2023-08-20T06:57:36;100798.91;;;30.42;31.47
21988;BME280;11158;53.404;-1.510;2023-08-20T07:00:20;100811.09;;;29.15;34.05
21988;BME280;11158;53.404;-1.510;2023-08-20T07:03:05;100816.28;;;28.97;34.42
21988;BME280;11158;53.404;-1.510;2023-08-20T07:05:49;100815.09;;;29.41;33.56
21988;BME280;11158;53.404;-1.510;2023-08-20T07:08:33;100819.13;;;28.92;34.21
21988;BME280;11158;53.404;-1.510;2023-08-20T07:11:17;100827.72;;;28.67;35.22
21988;BME280;11158;53.404;-1.510;2023-08-20T07:14:01;100819.72;;;29.93;32.91
21988;BME280;11158;53.404;-1.510;2023-08-20T07:16:46;100819.44;;;29.10;34.18
21988;BME280;11158;53.404;-1.510;2023-08-20T07:19:30;100820.19;;;27.02;37.93
21988;BME280;11158;53.404;-1.510;2023-08-20T07:22:14;100812.00;;;29.62;34.31
21988;BME280;11158;53.404;-1.510;2023-08-20T07:24:58;100829.31;;;28.25;35.76
21988;BME280;11158;53.404;-1.510;2023-08-20T07:27:42;100819.72;;;30.20;32.31
21988;BME280;11158;53.404;-1.510;2023-08-20T07:30:28;100829.47;;;27.51;36.55
21988;BME280;11158;53.404;-1.510;2023-08-20T07:33:12;100844.44;;;25.53;41.40
21988;BME280;11158;53.404;-1.510;2023-08-20T07:35:56;100859.91;;;24.28;44.50
21988;BME280;11158;53.404;-1.510;2023-08-20T07:38:40;100846.41;;;23.14;46.96
21988;BME280;11158;53.404;-1.510;2023-08-20T07:41:26;100868.81;;;21.94;49.93
21988;BME280;11158;53.404;-1.510;2023-08-20T07:44:10;100864.34;;;21.26;52.69
21988;BME280;11158;53.404;-1.510;2023-08-20T07:46:54;100868.94;;;21.71;51.78
21988;BME280;11158;53.404;-1.510;2023-08-20T07:49:38;100870.09;;;22.09;51.08
21988;BME280;11158;53.404;-1.510;2023-08-20T07:52:22;100855.69;;;22.08;50.94
21988;BME280;11158;53.404;-1.510;2023-08-20T07:55:07;100862.53;;;22.50;50.06
21988;BME280;11158;53.404;-1.510;2023-08-20T07:57:51;100862.59;;;21.82;50.98
21988;BME280;11158;53.404;-1.510;2023-08-20T08:00:36;100867.47;;;21.97;51.62
21988;BME280;11158;53.404;-1.510;2023-08-20T08:03:20;100871.03;;;21.98;51.67
21988;BME280;11158;53.404;-1.510;2023-08-20T08:06:04;100871.59;;;21.83;51.28
21988;BME280;11158;53.404;-1.510;2023-08-20T08:08:49;100873.50;;;21.65;51.72
21988;BME280;11158;53.404;-1.510;2023-08-20T08:11:33;100872.97;;;22.19;51.23
21988;BME280;11158;53.404;-1.510;2023-08-20T08:14:17;100874.31;;;22.00;51.75
21988;BME280;11158;53.404;-1.510;2023-08-20T08:17:01;100869.84;;;21.93;51.64
21988;BME280;11158;53.404;-1.510;2023-08-20T08:19:46;100874.19;;;22.67;50.07
21988;BME280;11158;53.404;-1.510;2023-08-20T08:22:30;100872.03;;;22.69;49.54
21988;BME280;11158;53.404;-1.510;2023-08-20T08:25:14;100885.84;;;22.63;49.58
21988;BME280;11158;53.404;-1.510;2023-08-20T08:27:58;100888.66;;;21.78;51.97
21988;BME280;11158;53.404;-1.510;2023-08-20T08:30:42;100893.09;;;22.18;51.31
21988;BME280;11158;53.404;-1.510;2023-08-20T08:33:26;100892.38;;;22.23;51.50
21988;BME280;11158;53.404;-1.510;2023-08-20T08:36:11;100886.66;;;22.85;49.73
21988;BME280;11158;53.404;-1.510;2023-08-20T08:38:55;100896.22;;;22.44;50.39
21988;BME280;11158;53.404;-1.510;2023-08-20T08:41:40;100892.84;;;22.36;51.23
21988;BME280;11158;53.404;-1.510;2023-08-20T08:44:27;100897.38;;;22.92;48.71
21988;BME280;11158;53.404;-1.510;2023-08-20T08:47:11;100909.75;;;24.08;47.00
21988;BME280;11158;53.404;-1.510;2023-08-20T08:49:56;100909.31;;;23.89;47.10
21988;BME280;11158;53.404;-1.510;2023-08-20T08:52:41;100902.78;;;23.63;47.60
21988;BME280;11158;53.404;-1.510;2023-08-20T08:55:25;100908.22;;;24.70;45.36
21988;BME280;11158;53.404;-1.510;2023-08-20T08:58:09;100914.59;;;24.96;44.33
21988;BME280;11158;53.404;-1.510;2023-08-20T09:00:53;100914.09;;;24.46;45.03
21988;BME280;11158;53.404;-1.510;2023-08-20T09:03:37;100921.78;;;24.50;44.88
21988;BME280;11158;53.404;-1.510;2023-08-20T09:06:21;100927.31;;;24.22;45.90
21988;BME280;11158;53.404;-1.510;2023-08-20T09:09:06;100919.31;;;24.11;46.54
21988;BME280;11158;53.404;-1.510;2023-08-20T09:11:50;100920.63;;;24.98;43.82
21988;BME280;11158;53.404;-1.510;2023-08-20T09:14:34;100928.97;;;24.23;45.13
21988;BME280;11158;53.404;-1.510;2023-08-20T09:17:19;100911.06;;;24.96;43.71
21988;BME280;11158;53.404;-1.510;2023-08-20T09:20:03;100921.03;;;24.22;45.55
21988;BME280;11158;53.404;-1.510;2023-08-20T09:22:48;100921.91;;;23.95;46.03
21988;BME280;11158;53.404;-1.510;2023-08-20T09:25:33;100919.97;;;23.63;46.37
21988;BME280;11158;53.404;-1.510;2023-08-20T09:28:17;100909.16;;;22.97;48.32
21988;BME280;11158;53.404;-1.510;2023-08-20T09:31:02;100907.94;;;23.05;47.96
21988;BME280;11158;53.404;-1.510;2023-08-20T09:33:50;100905.38;;;23.20;47.48
21988;BME280;11158;53.404;-1.510;2023-08-20T09:36:35;100904.47;;;23.37;47.34
21988;BME280;11158;53.404;-1.510;2023-08-20T09:39:19;100903.22;;;23.77;46.47
21988;BME280;11158;53.404;-1.510;2023-08-20T09:42:07;100901.84;;;24.54;45.09
21988;BME280;11158;53.404;-1.510;2023-08-20T09:44:52;100901.75;;;23.69;46.65
21988;BME280;11158;53.404;-1.510;2023-08-20T09:47:38;100914.09;;;22.78;49.07
21988;BME280;11158;53.404;-1.510;2023-08-20T09:50:26;100917.00;;;23.38;46.99
21988;BME280;11158;53.404;-1.510;2023-08-20T09:56:30;100912.28;;;23.55;47.56
21988;BME280;11158;53.404;-1.510;2023-08-20T09:59:15;100915.59;;;23.90;45.97
21988;BME280;11158;53.404;-1.510;2023-08-20T10:02:01;100910.53;;;24.03;46.33
21988;BME280;11158;53.404;-1.510;2023-08-20T10:04:46;100914.25;;;24.35;44.90
21988;BME280;11158;53.404;-1.510;2023-08-20T10:07:31;100904.69;;;23.90;45.29
21988;BME280;11158;53.404;-1.510;2023-08-20T10:10:16;100915.97;;;23.44;46.46
21988;BME280;11158;53.404;-1.510;2023-08-20T10:13:00;100910.59;;;23.81;45.74
21988;BME280;11158;53.404;-1.510;2023-08-20T10:15:46;100907.47;;;24.00;45.06
21988;BME280;11158;53.404;-1.510;2023-08-20T10:18:30;100919.34;;;24.16;45.01
21988;BME280;11158;53.404;-1.510;2023-08-20T10:21:23;100911.00;;;24.33;44.46
21988;BME280;11158;53.404;-1.510;2023-08-20T10:24:08;100906.13;;;24.40;44.15
21988;BME280;11158;53.404;-1.510;2023-08-20T10:27:30;100902.44;;;25.35;42.04
21988;BME280;11158;53.404;-1.510;2023-08-20T10:30:25;100907.41;;;25.68;41.42
21988;BME280;11158;53.404;-1.510;2023-08-20T10:33:09;100898.09;;;25.59;41.27
21988;BME280;11158;53.404;-1.510;2023-08-20T10:35:54;100903.56;;;26.26;40.76
21988;BME280;11158;53.404;-1.510;2023-08-20T10:38:38;100900.97;;;27.35;39.19
21988;BME280;11158;53.404;-1.510;2023-08-20T10:41:27;100899.88;;;27.31;38.12
21988;BME280;11158;53.404;-1.510;2023-08-20T10:44:11;100898.09;;;27.51;37.83
21988;BME280;11158;53.404;-1.510;2023-08-20T10:46:55;100899.59;;;26.73;38.83
21988;BME280;11158;53.404;-1.510;2023-08-20T10:49:39;100897.94;;;26.77;38.83
21988;BME280;11158;53.404;-1.510;2023-08-20T10:52:23;100909.56;;;25.46;41.50
21988;BME280;11158;53.404;-1.510;2023-08-20T10:55:08;100908.53;;;25.98;40.58
21988;BME280;11158;53.404;-1.510;2023-08-20T10:57:58;100900.34;;;26.89;38.94
21988;BME280;11158;53.404;-1.510;2023-08-20T11:01:15;100908.41;;;26.65;37.95
21988;BME280;11158;53.404;-1.510;2023-08-20T11:04:00;100904.06;;;26.38;38.86
21988;BME280;11158;53.404;-1.510;2023-08-20T11:06:58;100903.59;;;27.01;38.60
21988;BME280;11158;53.404;-1.510;2023-08-20T11:09:43;100906.50;;;26.50;38.04
21988;BME280;11158;53.404;-1.510;2023-08-20T11:12:29;100907.75;;;26.88;37.97
21988;BME280;11158;53.404;-1.510;2023-08-20T11:15:14;100901.81;;;26.66;38.01
21988;BME280;11158;53.404;-1.510;2023-08-20T11:17:58;100906.66;;;26.94;37.54
21988;BME280;11158;53.404;-1.510;2023-08-20T11:20:43;100899.19;;;27.50;37.62
21988;BME280;11158;53.404;-1.510;2023-08-20T11:23:28;100910.47;;;26.99;38.05
21988;BME280;11158;53.404;-1.510;2023-08-20T11:26:11;100905.44;;;27.11;37.71
21988;BME280;11158;53.404;-1.510;2023-08-20T11:28:56;100903.19;;;26.63;38.41
21988;BME280;11158;53.404;-1.510;2023-08-20T11:31:40;100910.66;;;26.27;39.34
21988;BME280;11158;53.404;-1.510;2023-08-20T11:34:25;100907.00;;;26.72;37.98
21988;BME280;11158;53.404;-1.510;2023-08-20T11:37:09;100905.41;;;27.21;37.19
21988;BME280;11158;53.404;-1.510;2023-08-20T11:39:53;100899.19;;;27.50;36.97
21988;BME280;11158;53.404;-1.510;2023-08-20T11:42:37;100899.25;;;27.40;37.01
21988;BME280;11158;53.404;-1.510;2023-08-20T11:45:21;100890.69;;;27.81;36.98
21988;BME280;11158;53.404;-1.510;2023-08-20T11:48:08;100899.25;;;27.79;36.75
21988;BME280;11158;53.404;-1.510;2023-08-20T11:50:53;100887.47;;;27.73;36.60
21988;BME280;11158;53.404;-1.510;2023-08-20T11:53:40;100887.00;;;27.66;37.25
21988;BME280;11158;53.404;-1.510;2023-08-20T11:56:26;100889.88;;;26.10;39.29
21988;BME280;11158;53.404;-1.510;2023-08-20T11:59:11;100899.16;;;26.30;38.41
21988;BME280;11158;53.404;-1.510;2023-08-20T12:02:00;100876.72;;;25.41;38.23
21988;BME280;11158;53.404;-1.510;2023-08-20T12:04:50;100896.97;;;25.40;39.75
21988;BME280;11158;53.404;-1.510;2023-08-20T12:07:34;100890.72;;;26.16;38.03
21988;BME280;11158;53.404;-1.510;2023-08-20T12:10:19;100889.91;;;26.05;38.69
21988;BME280;11158;53.404;-1.510;2023-08-20T12:13:04;100892.44;;;26.77;37.02
21988;BME280;11158;53.404;-1.510;2023-08-20T12:15:48;100881.38;;;26.98;36.68
21988;BME280;11158;53.404;-1.510;2023-08-20T12:18:32;100880.94;;;26.75;35.67
21988;BME280;11158;53.404;-1.510;2023-08-20T12:21:16;100883.47;;;27.16;35.60
21988;BME280;11158;53.404;-1.510;2023-08-20T12:24:01;100890.44;;;26.07;36.24
21988;BME280;11158;53.404;-1.510;2023-08-20T12:26:45;100882.41;;;26.42;35.62
21988;BME280;11158;53.404;-1.510;2023-08-20T12:29:29;100874.56;;;27.40;33.96
21988;BME280;11158;53.404;-1.510;2023-08-20T12:32:14;100882.78;;;27.40;34.33
21988;BME280;11158;53.404;-1.510;2023-08-20T12:34:58;100874.78;;;27.04;34.68
21988;BME280;11158;53.404;-1.510;2023-08-20T12:37:42;100875.47;;;26.75;34.44
21988;BME280;11158;53.404;-1.510;2023-08-20T12:40:27;100885.41;;;26.45;34.89
21988;BME280;11158;53.404;-1.510;2023-08-20T12:43:11;100882.09;;;26.64;34.18
21988;BME280;11158;53.404;-1.510;2023-08-20T12:45:55;100876.69;;;27.48;33.90
21988;BME280;11158;53.404;-1.510;2023-08-20T12:48:40;100888.38;;;27.64;33.58
21988;BME280;11158;53.404;-1.510;2023-08-20T12:51:25;100890.88;;;28.24;33.62
21988;BME280;11158;53.404;-1.510;2023-08-20T12:54:10;100889.00;;;27.90;34.17
21988;BME280;11158;53.404;-1.510;2023-08-20T12:56:55;100886.41;;;27.69;34.59
21988;BME280;11158;53.404;-1.510;2023-08-20T12:59:39;100886.34;;;27.45;34.92
21988;BME280;11158;53.404;-1.510;2023-08-20T13:02:23;100880.94;;;28.28;34.86
21988;BME280;11158;53.404;-1.510;2023-08-20T13:05:08;100888.44;;;27.93;35.51
21988;BME280;11158;53.404;-1.510;2023-08-20T13:07:53;100886.69;;;28.31;35.26
21988;BME280;11158;53.404;-1.510;2023-08-20T13:10:39;100888.53;;;27.77;34.75
21988;BME280;11158;53.404;-1.510;2023-08-20T13:13:25;100898.22;;;28.04;34.90
21988;BME280;11158;53.404;-1.510;2023-08-20T13:16:10;100891.25;;;28.65;34.43
21988;BME280;11158;53.404;-1.510;2023-08-20T13:18:54;100895.25;;;28.97;34.20
21988;BME280;11158;53.404;-1.510;2023-08-20T13:21:39;100894.72;;;28.95;33.98
21988;BME280;11158;53.404;-1.510;2023-08-20T13:24:23;100901.84;;;28.77;33.83
21988;BME280;11158;53.404;-1.510;2023-08-20T13:27:07;100902.81;;;28.38;34.53
21988;BME280;11158;53.404;-1.510;2023-08-20T13:29:51;100894.31;;;27.76;35.40
21988;BME280;11158;53.404;-1.510;2023-08-20T13:32:36;100898.50;;;28.03;35.11
21988;BME280;11158;53.404;-1.510;2023-08-20T13:35:20;100893.75;;;27.84;35.85
21988;BME280;11158;53.404;-1.510;2023-08-20T13:38:04;100898.78;;;28.01;35.63
21988;BME280;11158;53.404;-1.510;2023-08-20T13:40:49;100899.53;;;27.77;35.63
21988;BME280;11158;53.404;-1.510;2023-08-20T13:43:33;100904.28;;;28.01;35.42
21988;BME280;11158;53.404;-1.510;2023-08-20T13:46:17;100912.47;;;26.83;37.41
21988;BME280;11158;53.404;-1.510;2023-08-20T13:49:01;100910.50;;;26.88;37.35
21988;BME280;11158;53.404;-1.510;2023-08-20T13:51:46;100907.41;;;27.00;36.82
21988;BME280;11158;53.404;-1.510;2023-08-20T13:54:30;100904.03;;;26.53;38.40
21988;BME280;11158;53.404;-1.510;2023-08-20T13:57:14;100908.47;;;26.39;37.87
21988;BME280;11158;53.404;-1.510;2023-08-20T13:59:58;100899.19;;;25.99;37.38
21988;BME280;11158;53.404;-1.510;2023-08-20T14:02:43;100905.47;;;25.74;38.23
21988;BME280;11158;53.404;-1.510;2023-08-20T14:05:27;100904.09;;;25.41;37.68
21988;BME280;11158;53.404;-1.510;2023-08-20T14:08:13;100904.66;;;25.48;37.21
21988;BME280;11158;53.404;-1.510;2023-08-20T14:10:57;100908.75;;;25.81;36.62
21988;BME280;11158;53.404;-1.510;2023-08-20T14:13:41;100901.09;;;25.83;37.21
21988;BME280;11158;53.404;-1.510;2023-08-20T14:16:26;100910.16;;;25.63;37.61
21988;BME280;11158;53.404;-1.510;2023-08-20T14:19:10;100895.88;;;25.46;38.19
21988;BME280;11158;53.404;-1.510;2023-08-20T14:21:54;100905.19;;;25.45;38.37
21988;BME280;11158;53.404;-1.510;2023-08-20T14:24:38;100901.41;;;25.87;37.72